sensor_id;sensor_type;location;lat;lon;timestamp;P1;durP1;ratioP1;P2;durP2;ratioP2
21243;SDS011;10780;50.942;4.028;2022-09-09T00:00:28;6.13;;;2.83;;
21243;SDS011;10780;50.942;4.028;2022-09-09T00:03:02;5.18;;;2.90;;
21243;SDS011;10780;50.942;4.028;2022-09-09T00:09:04;5.38;;;3.00;;
21243;SDS011;10780;50.942;4.028;2022-09-09T00:14:48;5.55;;;3.10;;
21243;SDS011;10780;50.942;4.028;2022-09-09T00:22:51;5.85;;;3.10;;
21243;SDS011;10780;50.942;4.028;2022-09-09T00:28:22;5.25;;;2.55;;
21243;SDS011;10780;50.942;4.028;2022-09-09T00:30:50;6.55;;;2.72;;
21243;SDS011;10780;50.942;4.028;2022-09-09T00:33:17;6.50;;;2.55;;
21243;SDS011;10780;50.942;4.028;2022-09-09T00:35:49;6.35;;;2.50;;
21243;SDS011;10780;50.942;4.028;2022-09-09T00:38:32;7.32;;;2.78;;
21243;SDS011;10780;50.942;4.028;2022-09-09T00:41:03;6.40;;;2.65;;
21243;SDS011;10780;50.942;4.028;2022-09-09T00:49:24;6.18;;;2.58;;
21243;SDS011;10780;50.942;4.028;2022-09-09T00:57:29;6.38;;;2.40;;
21243;SDS011;10780;50.942;4.028;2022-09-09T00:59:58;4.30;;;2.15;;
21243;SDS011;10780;50.942;4.028;2022-09-09T01:05:24;3.55;;;1.88;;
21243;SDS011;10780;50.942;4.028;2022-09-09T01:07:52;4.93;;;2.13;;
21243;SDS011;10780;50.942;4.028;2022-09-09T01:13:31;5.85;;;2.00;;
21243;SDS011;10780;50.942;4.028;2022-09-09T01:16:00;5.30;;;2.30;;
21243;SDS011;10780;50.942;4.028;2022-09-09T01:18:43;4.50;;;2.25;;
21243;SDS011;10780;50.942;4.028;2022-09-09T01:21:20;5.20;;;2.17;;
21243;SDS011;10780;50.942;4.028;2022-09-09T01:24:38;6.40;;;2.28;;
21243;SDS011;10780;50.942;4.028;2022-09-09T01:27:11;3.45;;;1.90;;
21243;SDS011;10780;50.942;4.028;2022-09-09T01:29:40;4.63;;;1.90;;
21243;SDS011;10780;50.942;4.028;2022-09-09T01:35:16;3.03;;;1.88;;
21243;SDS011;10780;50.942;4.028;2022-09-09T01:37:56;10.18;;;2.35;;
21243;SDS011;10780;50.942;4.028;2022-09-09T01:40:23;3.75;;;1.80;;
21243;SDS011;10780;50.942;4.028;2022-09-09T01:42:49;5.10;;;2.28;;
21243;SDS011;10780;50.942;4.028;2022-09-09T01:45:15;6.30;;;1.80;;
21243;SDS011;10780;50.942;4.028;2022-09-09T01:47:41;3.88;;;2.00;;
21243;SDS011;10780;50.942;4.028;2022-09-09T01:50:08;4.47;;;2.05;;
21243;SDS011;10780;50.942;4.028;2022-09-09T01:52:36;8.20;;;2.72;;
21243;SDS011;10780;50.942;4.028;2022-09-09T01:55:02;6.32;;;2.33;;
21243;SDS011;10780;50.942;4.028;2022-09-09T02:00:14;4.38;;;2.10;;
21243;SDS011;10780;50.942;4.028;2022-09-09T02:02:46;5.97;;;2.10;;
21243;SDS011;10780;50.942;4.028;2022-09-09T02:08:10;4.10;;;2.03;;
21243;SDS011;10780;50.942;4.028;2022-09-09T02:13:39;7.05;;;2.13;;
21243;SDS011;10780;50.942;4.028;2022-09-09T02:18:55;5.40;;;2.20;;
21243;SDS011;10780;50.942;4.028;2022-09-09T02:21:26;6.22;;;2.08;;
21243;SDS011;10780;50.942;4.028;2022-09-09T02:23:56;7.85;;;2.53;;
21243;SDS011;10780;50.942;4.028;2022-09-09T02:26:24;7.22;;;2.92;;
21243;SDS011;10780;50.942;4.028;2022-09-09T02:28:52;5.75;;;2.42;;
21243;SDS011;10780;50.942;4.028;2022-09-09T02:31:21;5.90;;;2.40;;
21243;SDS011;10780;50.942;4.028;2022-09-09T02:33:54;7.55;;;2.58;;
21243;SDS011;10780;50.942;4.028;2022-09-09T02:36:24;7.68;;;2.90;;
21243;SDS011;10780;50.942;4.028;2022-09-09T02:38:54;4.85;;;2.45;;
21243;SDS011;10780;50.942;4.028;2022-09-09T02:41:21;8.68;;;3.03;;
21243;SDS011;10780;50.942;4.028;2022-09-09T02:43:58;6.43;;;2.38;;
21243;SDS011;10780;50.942;4.028;2022-09-09T02:48:59;4.28;;;2.75;;
21243;SDS011;10780;50.942;4.028;2022-09-09T02:51:45;8.68;;;2.80;;
21243;SDS011;10780;50.942;4.028;2022-09-09T02:54:34;10.05;;;3.05;;
21243;SDS011;10780;50.942;4.028;2022-09-09T02:57:14;8.57;;;2.72;;
21243;SDS011;10780;50.942;4.028;2022-09-09T02:59:44;5.13;;;2.38;;
21243;SDS011;10780;50.942;4.028;2022-09-09T03:02:11;9.68;;;2.90;;
21243;SDS011;10780;50.942;4.028;2022-09-09T03:04:38;7.45;;;2.42;;
21243;SDS011;10780;50.942;4.028;2022-09-09T03:07:04;9.13;;;2.83;;
21243;SDS011;10780;50.942;4.028;2022-09-09T03:09:30;7.93;;;3.30;;
21243;SDS011;10780;50.942;4.028;2022-09-09T03:11:57;6.88;;;2.97;;
21243;SDS011;10780;50.942;4.028;2022-09-09T03:14:23;7.32;;;2.78;;
21243;SDS011;10780;50.942;4.028;2022-09-09T03:16:52;11.02;;;3.15;;
21243;SDS011;10780;50.942;4.028;2022-09-09T03:19:18;7.30;;;3.08;;
21243;SDS011;10780;50.942;4.028;2022-09-09T03:21:45;9.45;;;2.90;;
21243;SDS011;10780;50.942;4.028;2022-09-09T03:24:11;11.93;;;3.28;;
21243;SDS011;10780;50.942;4.028;2022-09-09T03:26:38;8.38;;;2.60;;
21243;SDS011;10780;50.942;4.028;2022-09-09T03:29:05;6.80;;;2.75;;
21243;SDS011;10780;50.942;4.028;2022-09-09T03:31:33;12.02;;;3.20;;
21243;SDS011;10780;50.942;4.028;2022-09-09T03:34:00;6.55;;;2.53;;
21243;SDS011;10780;50.942;4.028;2022-09-09T03:36:27;10.52;;;2.95;;
21243;SDS011;10780;50.942;4.028;2022-09-09T03:38:53;10.27;;;2.92;;
21243;SDS011;10780;50.942;4.028;2022-09-09T03:41:20;10.05;;;3.30;;
21243;SDS011;10780;50.942;4.028;2022-09-09T03:43:48;9.20;;;3.00;;
21243;SDS011;10780;50.942;4.028;2022-09-09T03:46:18;6.20;;;2.92;;
21243;SDS011;10780;50.942;4.028;2022-09-09T03:48:44;9.35;;;3.30;;
21243;SDS011;10780;50.942;4.028;2022-09-09T03:51:10;13.88;;;3.60;;
21243;SDS011;10780;50.942;4.028;2022-09-09T03:53:35;9.15;;;3.15;;
21243;SDS011;10780;50.942;4.028;2022-09-09T03:56:03;8.05;;;3.15;;
21243;SDS011;10780;50.942;4.028;2022-09-09T03:58:32;8.50;;;2.75;;
21243;SDS011;10780;50.942;4.028;2022-09-09T04:01:09;10.38;;;3.03;;
21243;SDS011;10780;50.942;4.028;2022-09-09T04:03:38;11.88;;;3.08;;
21243;SDS011;10780;50.942;4.028;2022-09-09T04:06:05;9.50;;;3.30;;
21243;SDS011;10780;50.942;4.028;2022-09-09T04:08:33;9.18;;;3.50;;
21243;SDS011;10780;50.942;4.028;2022-09-09T04:11:00;10.63;;;3.20;;
21243;SDS011;10780;50.942;4.028;2022-09-09T04:13:30;8.95;;;3.70;;
21243;SDS011;10780;50.942;4.028;2022-09-09T04:15:57;8.65;;;2.83;;
21243;SDS011;10780;50.942;4.028;2022-09-09T04:18:24;9.90;;;3.22;;
21243;SDS011;10780;50.942;4.028;2022-09-09T04:20:51;10.18;;;2.88;;
21243;SDS011;10780;50.942;4.028;2022-09-09T04:23:18;9.18;;;2.85;;
21243;SDS011;10780;50.942;4.028;2022-09-09T04:25:45;8.00;;;2.88;;
21243;SDS011;10780;50.942;4.028;2022-09-09T04:28:12;6.80;;;2.60;;
21243;SDS011;10780;50.942;4.028;2022-09-09T04:30:41;11.68;;;2.80;;
21243;SDS011;10780;50.942;4.028;2022-09-09T04:33:08;6.97;;;2.90;;
21243;SDS011;10780;50.942;4.028;2022-09-09T04:35:35;9.45;;;3.13;;
21243;SDS011;10780;50.942;4.028;2022-09-09T04:38:03;12.75;;;2.83;;
21243;SDS011;10780;50.942;4.028;2022-09-09T04:40:29;12.45;;;3.08;;
21243;SDS011;10780;50.942;4.028;2022-09-09T04:42:57;7.47;;;2.85;;
21243;SDS011;10780;50.942;4.028;2022-09-09T04:45:23;9.38;;;3.00;;
21243;SDS011;10780;50.942;4.028;2022-09-09T04:47:49;9.73;;;2.53;;
21243;SDS011;10780;50.942;4.028;2022-09-09T04:50:14;8.65;;;3.05;;
21243;SDS011;10780;50.942;4.028;2022-09-09T04:52:41;8.48;;;2.92;;
21243;SDS011;10780;50.942;4.028;2022-09-09T04:55:07;11.88;;;2.95;;
21243;SDS011;10780;50.942;4.028;2022-09-09T04:57:34;9.30;;;3.05;;
21243;SDS011;10780;50.942;4.028;2022-09-09T05:00:00;6.05;;;3.65;;
21243;SDS011;10780;50.942;4.028;2022-09-09T05:02:27;8.85;;;2.97;;
21243;SDS011;10780;50.942;4.028;2022-09-09T05:04:52;9.50;;;2.67;;
21243;SDS011;10780;50.942;4.028;2022-09-09T05:07:18;11.80;;;4.35;;
21243;SDS011;10780;50.942;4.028;2022-09-09T05:09:44;11.13;;;3.35;;
21243;SDS011;10780;50.942;4.028;2022-09-09T05:12:10;10.00;;;3.40;;
21243;SDS011;10780;50.942;4.028;2022-09-09T05:14:36;9.77;;;3.35;;
21243;SDS011;10780;50.942;4.028;2022-09-09T05:17:02;6.93;;;2.60;;
21243;SDS011;10780;50.942;4.028;2022-09-09T05:19:28;13.63;;;4.78;;
21243;SDS011;10780;50.942;4.028;2022-09-09T05:21:56;13.30;;;3.28;;
21243;SDS011;10780;50.942;4.028;2022-09-09T05:24:21;13.18;;;3.30;;
21243;SDS011;10780;50.942;4.028;2022-09-09T05:26:48;8.93;;;3.13;;
21243;SDS011;10780;50.942;4.028;2022-09-09T05:29:14;9.93;;;3.28;;
21243;SDS011;10780;50.942;4.028;2022-09-09T05:31:39;7.65;;;2.92;;
21243;SDS011;10780;50.942;4.028;2022-09-09T05:34:06;10.00;;;2.92;;
21243;SDS011;10780;50.942;4.028;2022-09-09T05:36:31;10.27;;;3.30;;
21243;SDS011;10780;50.942;4.028;2022-09-09T05:38:57;14.00;;;3.58;;
21243;SDS011;10780;50.942;4.028;2022-09-09T05:41:23;10.18;;;2.92;;
21243;SDS011;10780;50.942;4.028;2022-09-09T05:43:48;9.20;;;2.92;;
21243;SDS011;10780;50.942;4.028;2022-09-09T05:46:19;12.10;;;3.83;;
21243;SDS011;10780;50.942;4.028;2022-09-09T05:48:46;9.50;;;2.70;;
21243;SDS011;10780;50.942;4.028;2022-09-09T05:51:14;11.35;;;3.10;;
21243;SDS011;10780;50.942;4.028;2022-09-09T05:53:42;8.90;;;2.63;;
21243;SDS011;10780;50.942;4.028;2022-09-09T05:56:11;11.02;;;3.33;;
21243;SDS011;10780;50.942;4.028;2022-09-09T05:58:39;10.70;;;3.50;;
21243;SDS011;10780;50.942;4.028;2022-09-09T06:01:06;6.60;;;3.00;;
21243;SDS011;10780;50.942;4.028;2022-09-09T06:03:37;9.32;;;3.28;;
21243;SDS011;10780;50.942;4.028;2022-09-09T06:06:04;10.57;;;3.20;;
21243;SDS011;10780;50.942;4.028;2022-09-09T06:08:35;8.82;;;3.25;;
21243;SDS011;10780;50.942;4.028;2022-09-09T06:13:29;7.88;;;3.42;;
21243;SDS011;10780;50.942;4.028;2022-09-09T06:15:56;14.10;;;3.67;;
21243;SDS011;10780;50.942;4.028;2022-09-09T06:18:23;10.00;;;3.70;;
21243;SDS011;10780;50.942;4.028;2022-09-09T06:21:01;8.90;;;3.75;;
21243;SDS011;10780;50.942;4.028;2022-09-09T06:23:32;6.82;;;4.20;;
21243;SDS011;10780;50.942;4.028;2022-09-09T06:26:19;9.20;;;3.85;;
21243;SDS011;10780;50.942;4.028;2022-09-09T06:28:48;8.98;;;2.75;;
21243;SDS011;10780;50.942;4.028;2022-09-09T06:31:30;12.10;;;3.00;;
21243;SDS011;10780;50.942;4.028;2022-09-09T06:33:59;5.50;;;2.53;;
21243;SDS011;10780;50.942;4.028;2022-09-09T06:36:26;8.43;;;2.80;;
21243;SDS011;10780;50.942;4.028;2022-09-09T06:38:58;7.30;;;2.45;;
21243;SDS011;10780;50.942;4.028;2022-09-09T06:41:27;7.25;;;2.35;;
21243;SDS011;10780;50.942;4.028;2022-09-09T06:43:56;8.27;;;2.65;;
21243;SDS011;10780;50.942;4.028;2022-09-09T06:46:23;10.88;;;2.22;;
21243;SDS011;10780;50.942;4.028;2022-09-09T06:48:55;8.70;;;2.55;;
21243;SDS011;10780;50.942;4.028;2022-09-09T06:51:24;9.18;;;2.38;;
21243;SDS011;10780;50.942;4.028;2022-09-09T06:53:59;7.43;;;2.50;;
21243;SDS011;10780;50.942;4.028;2022-09-09T06:56:34;9.52;;;2.78;;
21243;SDS011;10780;50.942;4.028;2022-09-09T06:59:01;9.05;;;2.35;;
21243;SDS011;10780;50.942;4.028;2022-09-09T07:01:32;5.75;;;2.25;;
21243;SDS011;10780;50.942;4.028;2022-09-09T07:03:59;8.70;;;2.28;;
21243;SDS011;10780;50.942;4.028;2022-09-09T07:06:29;9.35;;;2.17;;
21243;SDS011;10780;50.942;4.028;2022-09-09T07:09:04;5.50;;;1.92;;
21243;SDS011;10780;50.942;4.028;2022-09-09T07:11:32;10.25;;;2.53;;
21243;SDS011;10780;50.942;4.028;2022-09-09T07:13:59;10.05;;;2.47;;
21243;SDS011;10780;50.942;4.028;2022-09-09T07:16:26;7.13;;;2.38;;
21243;SDS011;10780;50.942;4.028;2022-09-09T07:18:53;6.78;;;2.53;;
21243;SDS011;10780;50.942;4.028;2022-09-09T07:21:23;7.13;;;2.70;;
21243;SDS011;10780;50.942;4.028;2022-09-09T07:23:51;11.10;;;2.40;;
21243;SDS011;10780;50.942;4.028;2022-09-09T07:26:18;4.90;;;2.30;;
21243;SDS011;10780;50.942;4.028;2022-09-09T07:28:47;7.85;;;2.22;;
21243;SDS011;10780;50.942;4.028;2022-09-09T07:31:15;6.20;;;2.45;;
21243;SDS011;10780;50.942;4.028;2022-09-09T07:33:43;7.28;;;2.70;;
21243;SDS011;10780;50.942;4.028;2022-09-09T07:36:12;6.00;;;2.50;;
21243;SDS011;10780;50.942;4.028;2022-09-09T07:38:39;6.93;;;2.60;;
21243;SDS011;10780;50.942;4.028;2022-09-09T07:41:10;8.20;;;2.40;;
21243;SDS011;10780;50.942;4.028;2022-09-09T07:43:39;10.18;;;2.50;;
21243;SDS011;10780;50.942;4.028;2022-09-09T07:46:17;16.35;;;4.43;;
21243;SDS011;10780;50.942;4.028;2022-09-09T07:48:47;7.32;;;2.47;;
21243;SDS011;10780;50.942;4.028;2022-09-09T07:51:16;8.38;;;2.60;;
21243;SDS011;10780;50.942;4.028;2022-09-09T07:53:46;7.78;;;2.40;;
21243;SDS011;10780;50.942;4.028;2022-09-09T07:56:14;10.27;;;2.72;;
21243;SDS011;10780;50.942;4.028;2022-09-09T07:58:45;7.20;;;2.45;;
21243;SDS011;10780;50.942;4.028;2022-09-09T08:07:44;7.68;;;2.92;;
21243;SDS011;10780;50.942;4.028;2022-09-09T08:11:01;5.13;;;2.38;;
21243;SDS011;10780;50.942;4.028;2022-09-09T08:13:47;8.02;;;2.88;;
21243;SDS011;10780;50.942;4.028;2022-09-09T08:16:28;9.48;;;2.60;;
21243;SDS011;10780;50.942;4.028;2022-09-09T08:19:04;7.38;;;2.40;;
21243;SDS011;10780;50.942;4.028;2022-09-09T08:21:38;9.15;;;2.40;;
21243;SDS011;10780;50.942;4.028;2022-09-09T08:24:05;9.85;;;2.20;;
21243;SDS011;10780;50.942;4.028;2022-09-09T08:26:34;9.98;;;2.45;;
21243;SDS011;10780;50.942;4.028;2022-09-09T08:29:03;7.68;;;2.40;;
21243;SDS011;10780;50.942;4.028;2022-09-09T08:31:37;9.18;;;2.20;;
21243;SDS011;10780;50.942;4.028;2022-09-09T08:34:04;7.53;;;2.67;;
21243;SDS011;10780;50.942;4.028;2022-09-09T08:36:35;6.80;;;2.30;;
21243;SDS011;10780;50.942;4.028;2022-09-09T08:39:08;7.47;;;2.40;;
21243;SDS011;10780;50.942;4.028;2022-09-09T08:41:49;7.22;;;2.42;;
21243;SDS011;10780;50.942;4.028;2022-09-09T08:44:37;6.18;;;2.30;;
21243;SDS011;10780;50.942;4.028;2022-09-09T08:50:25;7.25;;;2.40;;
21243;SDS011;10780;50.942;4.028;2022-09-09T08:55:47;6.22;;;2.30;;
21243;SDS011;10780;50.942;4.028;2022-09-09T09:09:22;6.93;;;2.60;;
21243;SDS011;10780;50.942;4.028;2022-09-09T09:12:20;10.50;;;2.65;;
21243;SDS011;10780;50.942;4.028;2022-09-09T09:14:51;4.70;;;2.30;;
21243;SDS011;10780;50.942;4.028;2022-09-09T09:17:20;4.78;;;2.08;;
21243;SDS011;10780;50.942;4.028;2022-09-09T09:19:49;5.88;;;2.13;;
21243;SDS011;10780;50.942;4.028;2022-09-09T09:27:59;8.10;;;2.67;;
21243;SDS011;10780;50.942;4.028;2022-09-09T09:30:53;5.05;;;2.05;;
21243;SDS011;10780;50.942;4.028;2022-09-09T09:36:02;10.20;;;2.67;;
21243;SDS011;10780;50.942;4.028;2022-09-09T09:38:28;7.80;;;2.45;;
21243;SDS011;10780;50.942;4.028;2022-09-09T09:40:58;6.13;;;2.20;;
21243;SDS011;10780;50.942;4.028;2022-09-09T09:43:26;5.80;;;2.75;;
21243;SDS011;10780;50.942;4.028;2022-09-09T09:45:54;10.25;;;3.10;;
21243;SDS011;10780;50.942;4.028;2022-09-09T09:48:20;7.40;;;2.38;;
21243;SDS011;10780;50.942;4.028;2022-09-09T09:50:49;8.95;;;2.38;;
21243;SDS011;10780;50.942;4.028;2022-09-09T09:53:25;6.40;;;2.97;;
21243;SDS011;10780;50.942;4.028;2022-09-09T09:55:55;7.80;;;2.42;;
21243;SDS011;10780;50.942;4.028;2022-09-09T09:58:24;7.95;;;2.80;;
21243;SDS011;10780;50.942;4.028;2022-09-09T10:01:03;9.18;;;2.90;;
21243;SDS011;10780;50.942;4.028;2022-09-09T10:03:33;5.13;;;2.20;;
21243;SDS011;10780;50.942;4.028;2022-09-09T10:06:02;6.30;;;2.85;;
21243;SDS011;10780;50.942;4.028;2022-09-09T10:14:55;5.57;;;1.90;;
21243;SDS011;10780;50.942;4.028;2022-09-09T10:24:00;8.77;;;2.10;;
21243;SDS011;10780;50.942;4.028;2022-09-09T10:37:39;6.78;;;2.53;;
21243;SDS011;10780;50.942;4.028;2022-09-09T10:40:28;7.28;;;3.08;;
21243;SDS011;10780;50.942;4.028;2022-09-09T10:43:13;4.93;;;2.78;;
21243;SDS011;10780;50.942;4.028;2022-09-09T10:56:28;4.45;;;2.20;;
21243;SDS011;10780;50.942;4.028;2022-09-09T10:58:56;3.08;;;1.95;;
21243;SDS011;10780;50.942;4.028;2022-09-09T11:01:43;3.83;;;2.10;;
21243;SDS011;10780;50.942;4.028;2022-09-09T11:04:22;3.75;;;1.88;;
21243;SDS011;10780;50.942;4.028;2022-09-09T11:06:57;3.05;;;1.95;;
21243;SDS011;10780;50.942;4.028;2022-09-09T11:09:26;5.90;;;2.13;;
21243;SDS011;10780;50.942;4.028;2022-09-09T11:11:56;4.88;;;1.80;;
21243;SDS011;10780;50.942;4.028;2022-09-09T11:16:59;4.85;;;1.77;;
21243;SDS011;10780;50.942;4.028;2022-09-09T11:19:38;3.58;;;1.80;;
21243;SDS011;10780;50.942;4.028;2022-09-09T11:25:16;4.18;;;2.08;;
21243;SDS011;10780;50.942;4.028;2022-09-09T11:33:24;4.32;;;1.90;;
21243;SDS011;10780;50.942;4.028;2022-09-09T11:36:20;3.15;;;2.00;;
21243;SDS011;10780;50.942;4.028;2022-09-09T11:38:52;5.45;;;2.45;;
21243;SDS011;10780;50.942;4.028;2022-09-09T11:41:34;5.78;;;2.20;;
21243;SDS011;10780;50.942;4.028;2022-09-09T11:44:09;4.82;;;2.20;;
21243;SDS011;10780;50.942;4.028;2022-09-09T11:46:44;4.85;;;2.13;;
21243;SDS011;10780;50.942;4.028;2022-09-09T11:52:40;5.30;;;1.98;;
21243;SDS011;10780;50.942;4.028;2022-09-09T11:58:00;5.28;;;2.55;;
21243;SDS011;10780;50.942;4.028;2022-09-09T12:00:35;5.22;;;2.38;;
21243;SDS011;10780;50.942;4.028;2022-09-09T12:03:08;4.63;;;2.30;;
21243;SDS011;10780;50.942;4.028;2022-09-09T12:06:00;4.15;;;2.53;;
21243;SDS011;10780;50.942;4.028;2022-09-09T12:08:46;3.90;;;2.53;;
21243;SDS011;10780;50.942;4.028;2022-09-09T12:11:28;4.47;;;2.25;;
21243;SDS011;10780;50.942;4.028;2022-09-09T12:13:56;3.85;;;2.20;;
21243;SDS011;10780;50.942;4.028;2022-09-09T12:16:30;5.30;;;2.13;;
21243;SDS011;10780;50.942;4.028;2022-09-09T12:19:20;4.63;;;2.25;;
21243;SDS011;10780;50.942;4.028;2022-09-09T12:24:49;3.75;;;2.60;;
21243;SDS011;10780;50.942;4.028;2022-09-09T12:27:45;2.92;;;2.70;;
21243;SDS011;10780;50.942;4.028;2022-09-09T12:30:34;4.43;;;2.60;;
21243;SDS011;10780;50.942;4.028;2022-09-09T12:33:20;5.45;;;2.70;;
21243;SDS011;10780;50.942;4.028;2022-09-09T12:35:50;3.88;;;2.00;;
21243;SDS011;10780;50.942;4.028;2022-09-09T12:38:27;3.42;;;2.05;;
21243;SDS011;10780;50.942;4.028;2022-09-09T12:40:59;3.28;;;2.20;;
21243;SDS011;10780;50.942;4.028;2022-09-09T12:43:25;3.00;;;2.15;;
21243;SDS011;10780;50.942;4.028;2022-09-09T12:45:56;3.65;;;2.38;;
21243;SDS011;10780;50.942;4.028;2022-09-09T12:48:44;3.17;;;2.28;;
21243;SDS011;10780;50.942;4.028;2022-09-09T12:53:53;2.90;;;2.00;;
21243;SDS011;10780;50.942;4.028;2022-09-09T12:56:27;5.57;;;2.13;;
21243;SDS011;10780;50.942;4.028;2022-09-09T12:58:56;4.00;;;1.90;;
21243;SDS011;10780;50.942;4.028;2022-09-09T13:03:48;4.72;;;1.90;;
21243;SDS011;10780;50.942;4.028;2022-09-09T13:06:21;3.00;;;1.80;;
21243;SDS011;10780;50.942;4.028;2022-09-09T13:08:50;3.05;;;2.00;;
21243;SDS011;10780;50.942;4.028;2022-09-09T13:11:17;3.20;;;2.42;;
21243;SDS011;10780;50.942;4.028;2022-09-09T13:13:54;5.18;;;1.95;;
21243;SDS011;10780;50.942;4.028;2022-09-09T13:16:23;3.95;;;1.90;;
21243;SDS011;10780;50.942;4.028;2022-09-09T13:18:56;4.82;;;2.63;;
21243;SDS011;10780;50.942;4.028;2022-09-09T13:21:33;4.00;;;1.80;;
21243;SDS011;10780;50.942;4.028;2022-09-09T13:24:00;4.78;;;1.60;;
21243;SDS011;10780;50.942;4.028;2022-09-09T13:26:28;3.42;;;1.98;;
21243;SDS011;10780;50.942;4.028;2022-09-09T13:28:55;4.20;;;1.98;;
21243;SDS011;10780;50.942;4.028;2022-09-09T13:31:33;5.05;;;2.47;;
21243;SDS011;10780;50.942;4.028;2022-09-09T13:34:11;3.15;;;1.80;;
21243;SDS011;10780;50.942;4.028;2022-09-09T13:36:38;5.15;;;1.90;;
21243;SDS011;10780;50.942;4.028;2022-09-09T13:39:14;2.92;;;1.73;;
21243;SDS011;10780;50.942;4.028;2022-09-09T13:41:43;3.67;;;1.52;;
21243;SDS011;10780;50.942;4.028;2022-09-09T13:44:14;5.95;;;1.83;;
21243;SDS011;10780;50.942;4.028;2022-09-09T13:46:45;3.47;;;1.67;;
21243;SDS011;10780;50.942;4.028;2022-09-09T13:51:40;5.25;;;2.03;;
21243;SDS011;10780;50.942;4.028;2022-09-09T13:54:16;3.78;;;1.63;;
21243;SDS011;10780;50.942;4.028;2022-09-09T13:56:47;2.42;;;1.70;;
21243;SDS011;10780;50.942;4.028;2022-09-09T13:59:19;3.80;;;1.60;;
21243;SDS011;10780;50.942;4.028;2022-09-09T14:01:44;2.13;;;1.40;;
21243;SDS011;10780;50.942;4.028;2022-09-09T14:04:11;3.72;;;1.70;;
21243;SDS011;10780;50.942;4.028;2022-09-09T14:06:37;3.55;;;1.55;;
21243;SDS011;10780;50.942;4.028;2022-09-09T14:09:08;3.03;;;1.60;;
21243;SDS011;10780;50.942;4.028;2022-09-09T14:11:37;3.28;;;1.40;;
21243;SDS011;10780;50.942;4.028;2022-09-09T14:14:03;4.55;;;1.73;;
21243;SDS011;10780;50.942;4.028;2022-09-09T14:16:29;2.53;;;1.58;;
21243;SDS011;10780;50.942;4.028;2022-09-09T14:18:55;3.63;;;1.60;;
21243;SDS011;10780;50.942;4.028;2022-09-09T14:21:24;5.95;;;1.73;;
21243;SDS011;10780;50.942;4.028;2022-09-09T14:23:50;3.03;;;1.85;;
21243;SDS011;10780;50.942;4.028;2022-09-09T14:26:17;3.22;;;1.73;;
21243;SDS011;10780;50.942;4.028;2022-09-09T14:28:44;3.80;;;1.85;;
21243;SDS011;10780;50.942;4.028;2022-09-09T14:31:11;3.65;;;1.50;;
21243;SDS011;10780;50.942;4.028;2022-09-09T14:33:38;4.05;;;1.65;;
21243;SDS011;10780;50.942;4.028;2022-09-09T14:36:04;3.25;;;1.58;;
21243;SDS011;10780;50.942;4.028;2022-09-09T14:38:31;5.93;;;1.67;;
21243;SDS011;10780;50.942;4.028;2022-09-09T14:41:04;4.32;;;1.85;;
21243;SDS011;10780;50.942;4.028;2022-09-09T14:43:35;5.32;;;1.80;;
21243;SDS011;10780;50.942;4.028;2022-09-09T14:46:09;3.65;;;1.60;;
21243;SDS011;10780;50.942;4.028;2022-09-09T14:48:37;2.20;;;1.58;;
21243;SDS011;10780;50.942;4.028;2022-09-09T14:51:16;3.78;;;2.00;;
21243;SDS011;10780;50.942;4.028;2022-09-09T14:53:52;5.63;;;1.80;;
21243;SDS011;10780;50.942;4.028;2022-09-09T14:56:20;3.83;;;1.63;;
21243;SDS011;10780;50.942;4.028;2022-09-09T14:58:48;3.88;;;1.80;;
21243;SDS011;10780;50.942;4.028;2022-09-09T15:01:14;4.43;;;2.08;;
21243;SDS011;10780;50.942;4.028;2022-09-09T15:03:42;5.38;;;2.15;;
21243;SDS011;10780;50.942;4.028;2022-09-09T15:06:13;3.38;;;2.30;;
21243;SDS011;10780;50.942;4.028;2022-09-09T15:08:43;3.95;;;1.95;;
21243;SDS011;10780;50.942;4.028;2022-09-09T15:11:10;3.53;;;1.70;;
21243;SDS011;10780;50.942;4.028;2022-09-09T15:13:38;2.60;;;1.35;;
21243;SDS011;10780;50.942;4.028;2022-09-09T15:16:08;6.28;;;1.65;;
21243;SDS011;10780;50.942;4.028;2022-09-09T15:18:42;9.30;;;2.60;;
21243;SDS011;10780;50.942;4.028;2022-09-09T15:21:10;4.75;;;2.30;;
21243;SDS011;10780;50.942;4.028;2022-09-09T15:23:37;6.90;;;1.95;;
21243;SDS011;10780;50.942;4.028;2022-09-09T15:26:03;6.10;;;2.42;;
21243;SDS011;10780;50.942;4.028;2022-09-09T15:28:31;5.38;;;2.40;;
21243;SDS011;10780;50.942;4.028;2022-09-09T15:31:04;8.02;;;3.25;;
21243;SDS011;10780;50.942;4.028;2022-09-09T15:33:32;10.57;;;3.30;;
21243;SDS011;10780;50.942;4.028;2022-09-09T15:35:59;4.80;;;2.40;;
21243;SDS011;10780;50.942;4.028;2022-09-09T15:38:24;4.43;;;2.78;;
21243;SDS011;10780;50.942;4.028;2022-09-09T15:40:56;5.25;;;3.08;;
21243;SDS011;10780;50.942;4.028;2022-09-09T15:43:23;3.72;;;2.47;;
21243;SDS011;10780;50.942;4.028;2022-09-09T15:45:51;3.75;;;2.95;;
21243;SDS011;10780;50.942;4.028;2022-09-09T15:48:29;7.38;;;3.53;;
21243;SDS011;10780;50.942;4.028;2022-09-09T15:51:03;6.57;;;4.20;;
21243;SDS011;10780;50.942;4.028;2022-09-09T15:53:30;7.97;;;4.47;;
21243;SDS011;10780;50.942;4.028;2022-09-09T15:55:57;3.28;;;2.70;;
21243;SDS011;10780;50.942;4.028;2022-09-09T15:58:23;3.40;;;3.10;;
21243;SDS011;10780;50.942;4.028;2022-09-09T16:00:49;6.57;;;3.03;;
21243;SDS011;10780;50.942;4.028;2022-09-09T16:03:14;4.75;;;3.00;;
21243;SDS011;10780;50.942;4.028;2022-09-09T16:05:40;4.43;;;3.35;;
21243;SDS011;10780;50.942;4.028;2022-09-09T16:08:06;5.43;;;3.30;;
21243;SDS011;10780;50.942;4.028;2022-09-09T16:10:32;4.00;;;2.78;;
21243;SDS011;10780;50.942;4.028;2022-09-09T16:12:57;5.85;;;3.65;;
21243;SDS011;10780;50.942;4.028;2022-09-09T16:15:23;3.10;;;2.20;;
21243;SDS011;10780;50.942;4.028;2022-09-09T16:17:52;4.00;;;1.85;;
21243;SDS011;10780;50.942;4.028;2022-09-09T16:20:18;5.20;;;1.80;;
21243;SDS011;10780;50.942;4.028;2022-09-09T16:22:45;3.42;;;1.85;;
21243;SDS011;10780;50.942;4.028;2022-09-09T16:25:10;2.30;;;1.58;;
21243;SDS011;10780;50.942;4.028;2022-09-09T16:27:36;2.63;;;1.63;;
21243;SDS011;10780;50.942;4.028;2022-09-09T16:30:02;2.97;;;1.80;;
21243;SDS011;10780;50.942;4.028;2022-09-09T16:32:28;3.13;;;2.00;;
21243;SDS011;10780;50.942;4.028;2022-09-09T16:34:54;1.58;;;1.48;;
21243;SDS011;10780;50.942;4.028;2022-09-09T16:37:20;2.67;;;1.70;;
21243;SDS011;10780;50.942;4.028;2022-09-09T16:39:45;4.05;;;1.70;;
21243;SDS011;10780;50.942;4.028;2022-09-09T16:42:11;3.47;;;2.03;;
21243;SDS011;10780;50.942;4.028;2022-09-09T16:44:37;1.98;;;1.67;;
21243;SDS011;10780;50.942;4.028;2022-09-09T16:47:02;2.17;;;1.90;;
21243;SDS011;10780;50.942;4.028;2022-09-09T16:49:28;2.55;;;2.05;;
21243;SDS011;10780;50.942;4.028;2022-09-09T16:51:56;2.65;;;1.80;;
21243;SDS011;10780;50.942;4.028;2022-09-09T16:54:23;2.78;;;1.80;;
21243;SDS011;10780;50.942;4.028;2022-09-09T16:56:50;2.75;;;2.50;;
21243;SDS011;10780;50.942;4.028;2022-09-09T16:59:16;2.33;;;1.70;;
21243;SDS011;10780;50.942;4.028;2022-09-09T17:01:44;3.05;;;2.00;;
21243;SDS011;10780;50.942;4.028;2022-09-09T17:04:11;5.20;;;2.40;;
21243;SDS011;10780;50.942;4.028;2022-09-09T17:06:41;4.05;;;2.30;;
21243;SDS011;10780;50.942;4.028;2022-09-09T17:09:10;6.50;;;3.78;;
21243;SDS011;10780;50.942;4.028;2022-09-09T17:11:37;3.28;;;2.30;;
21243;SDS011;10780;50.942;4.028;2022-09-09T17:14:04;4.47;;;2.15;;
21243;SDS011;10780;50.942;4.028;2022-09-09T17:16:32;3.70;;;2.13;;
21243;SDS011;10780;50.942;4.028;2022-09-09T17:19:01;2.67;;;1.70;;
21243;SDS011;10780;50.942;4.028;2022-09-09T17:21:28;3.83;;;1.88;;
21243;SDS011;10780;50.942;4.028;2022-09-09T17:23:55;4.28;;;2.42;;
21243;SDS011;10780;50.942;4.028;2022-09-09T17:26:22;3.35;;;2.08;;
21243;SDS011;10780;50.942;4.028;2022-09-09T17:28:51;4.78;;;1.83;;
21243;SDS011;10780;50.942;4.028;2022-09-09T17:31:18;3.17;;;2.22;;